Tiempo atmosférico en la estación meteorológica de Calanda, Teruel (459 m.)



Fecha
DESCASC
Temp. máxima en grados centígrados (hora)
DESCASC
Temp. mínima en grados centígrados (hora)
DESCASC
Temp. media en grados centígrados
DESCASC
Racha de viento máxima en m/sg (hora)
DESCASC
Velocidad máxima media en intervalos de 10 minutos(hora)
DESCASC
Precipitaciones diarias en mm
DESCASC
Precipitaciones de 00:00 a 06:00 en mm
DESCASC
Precipitaciones de 06:00 a 12:00 en mm
DESCASC
Precipitaciones de 12:00 a 18:00 en mm
DESCASC
Precipitaciones de 18:00 a 24:00 en mm
DESCASC
10-11-2019 11 (13:30) 5.4 (00:00) 8.2 21.11 (00:20) 12.78 (00:20) 4.6 4.6 0 0 0
09-11-2019 14.7 (15:30) 6 (00:00) 10.3 12.22 (05:10) 8.33 (05:10) 0 0 0 0 0
08-11-2019 13.6 (14:30) 5.8 (06:00) 9.7 17.78 (16:20) 10.56 (16:20) 1.6 0 0 0 1.6
07-11-2019 -- (--) -- (--) -- -- (--) -- (--) -- -- -- 0 0
06-11-2019 -- (--) -- (--) -- -- (--) -- (--) -- 0 0 0 --
05-11-2019 16.8 (15:30) 8.1 (00:00) 12.4 17.22 (10:50) 10 (10:50) 0.2 0 0 0 0.2
04-11-2019 22.7 (13:20) 12.3 (00:00) 17.5 13.33 (14:00) 8.33 (15:30) 1.8 0 0 0 1.8
03-11-2019 18.3 (00:00) 9.5 (00:00) 13.9 21.39 (09:10) 12.78 (09:10) 1.4 0 1.4 0 0
02-11-2019 24.5 (14:10) 15.7 (00:00) 20.1 14.44 (06:10) 6.94 (12:20) 0 0 0 0 0
01-11-2019 24.4 (13:40) 12.3 (00:00) 18.3 11.39 (23:10) 5.83 (23:30) 4.2 0 0 3.6 0.6
31-10-2019 21.8 (14:10) 13.3 (23:59) 17.5 11.67 (12:20) 7.78 (14:50) 0 0 0 0 0
30-10-2019 22.2 (12:30) 13 (00:00) 17.6 -- (--) -- (--) 0 0 0 0 0
29-10-2019 21.4 (17:00) 11.7 (00:00) 16.5 -- (--) -- (--) 0 0 0 0 0
28-10-2019 18.8 (16:00) 12.1 (00:00) 15.4 -- (--) -- (--) 0 0 0 0 0
27-10-2019 21 (16:20) 10 (00:00) 15.5 -- (--) -- (--) 0 0 0 0 0
26-10-2019 21.8 (16:50) 10.8 (00:00) 16.3 -- (--) -- (--) 0 0 0 0 0
25-10-2019 23.2 (17:10) 11.4 (00:00) 17.3 -- (--) -- (--) 0 0 0 0 0
24-10-2019 17.6 (16:40) 8.2 (00:00) 12.9 -- (--) -- (--) 0 0 0 0 0
23-10-2019 15.6 (14:40) 8.8 (00:00) 12.2 6.67 (23:30) 3.89 (22:50) 4.6 4.4 0 0.2 0
22-10-2019 10.5 (05:40) 8.5 (15:20) 9.5 8.33 (15:20) 5.28 (15:20) 29.6 0 9.4 19.8 0.4
21-10-2019 16.4 (16:40) 6.8 (00:00) 11.6 5.28 (16:10) 3.33 (16:10) 0 0 0 0 0
20-10-2019 19.6 (04:00) 11.2 (00:00) 15.4 9.44 (09:50) 5.28 (09:10) 1 0 0 0 1
19-10-2019 27.2 (14:30) 13.5 (00:00) 20.4 9.72 (15:10) 6.39 (15:40) 0 0 0 0 0
18-10-2019 26.2 (14:00) 13.2 (00:00) 19.7 6.39 (17:40) 3.89 (17:40) 0 0 0 0 0
17-10-2019 23.1 (12:40) 11.1 (00:00) 17.1 7.22 (07:50) 5 (07:50) 0 0 0 0 0
16-10-2019 23.3 (17:20) 10.5 (00:00) 16.9 7.22 (02:40) 5 (02:40) 0 0 0 0 0
15-10-2019 19.5 (16:20) 10.5 (00:00) 15 15 (04:50) 8.06 (08:40) 0 0 0 0 0
14-10-2019 25.3 (13:20) 14.9 (00:00) 20.1 16.67 (08:40) 10 (08:40) 0.2 0 0 0.2 0

Gráficas

Temp. máximas Temp. mínimas Temp. medias Precipitaciones Rachas de viento máximas Velocidades máximas media en intervalos de 10 minutos

Datos horarios

Fecha y hora oficial Temperatura (ºC) Velocidad del viento (km/h) Dirección del viento Racha (km/h) Dirección de racha Precipitación (mm) Presión (hPa) Tendencia (hPa) Humedad (%)
2019-11-12 23:00:00 9.9 14 Oeste 24 Oeste 0 954.7 -0.7 60
2019-11-12 22:00:00 9 10 Sudoeste 17 Sudoeste 0 955.1 -0.6 57
2019-11-12 21:00:00 8.8 9 Oeste 22 Oeste 0 955.2 -0.5 57
2019-11-12 20:00:00 9.3 12 Oeste 22 Noroeste 0 955.4 -0.5 56
2019-11-12 19:00:00 9.1 10 Oeste 25 Noroeste 0 955.7 -0.8 60
2019-11-12 18:00:00 10.8 18 Noroeste 35 Noroeste 0 955.7 -1.2 50
2019-11-12 17:00:00 12.8 18 Noroeste 35 Noroeste 0 955.9 -1.6 43
2019-11-12 16:00:00 13.3 25 Noroeste 44 Oeste 0 956.5 -1.7 40
2019-11-12 15:00:00 13.3 27 Noroeste 50 Noroeste 0 956.9 -2.1 41
2019-11-12 14:00:00 13.3 26 Noroeste 49 Noroeste 0 957.5 -1.7 42
2019-11-12 13:00:00 13 26 Noroeste 54 Noroeste 0 958.2 -0.9 43
2019-11-12 12:00:00 12.1 27 Noroeste 50 Noroeste 0 959 -0.1 47
2019-11-12 11:00:00 11.3 29 Noroeste 52 Noroeste 0 959.2 0 50
2019-11-12 10:00:00 10.5 30 Oeste 47 Oeste 0 959.1 -0.3 53
2019-11-12 09:00:00 9.6 25 Oeste 39 Oeste 0 959.1 -0.7 55
2019-11-12 08:00:00 7.5 16 Oeste 30 Oeste 0 959.2 -0.4 63
2019-11-12 07:00:00 6.3 11 Oeste 26 Oeste 0 959.4 -0.2 66
2019-11-12 06:00:00 6.7 16 Oeste 36 Noroeste 0 959.8 0.2 63
2019-11-12 05:00:00 7.3 21 Oeste 42 Oeste 0 959.6 -0.5 59
2019-11-12 04:00:00 7 20 Oeste 40 Oeste 0 959.6 -0.9 60
2019-11-12 03:00:00 7.3 20 Oeste 45 Oeste 0 959.6 -1.2 60
2019-11-12 02:00:00 7.3 23 Oeste 43 Oeste 0 960.1 -0.7 62
2019-11-12 01:00:00 7.6 22 Oeste 53 Oeste 0 960.5 -0.5 60
2019-11-12 00:00:00 7.7 22 Oeste 45 Oeste 0 960.8 0.1 60
2019-11-11 23:00:00 8 29 Noroeste 52 Noroeste 0 960.8 0.7 60
2019-11-11 22:00:00 8.1 19 Oeste 46 Oeste 0 961 2.1 61
2019-11-11 21:00:00 8.5 24 Noroeste 48 Oeste 0 960.7 2.3 58
2019-11-11 20:00:00 9 25 Noroeste 70 Noroeste 0 960.1 2.2 59
2019-11-11 19:00:00 9.8 38 Noroeste 59 Noroeste 0 958.9 1.3 57
2019-11-11 18:00:00 10.2 31 Noroeste 61 Noroeste 0 958.4 0.8 63
2019-11-11 17:00:00 11.6 38 Noroeste 59 Noroeste 0 957.9 0.1 60
2019-11-11 16:00:00 12.7 24 Noroeste 45 Oeste 0 957.6 -0.7 55
2019-11-11 15:00:00 12.8 18 Noroeste 40 Noroeste 0 957.6 -1.5 50
2019-11-11 14:00:00 12.7 18 Noroeste 33 Oeste 0 957.8 -2.4 48
2019-11-11 13:00:00 12.4 18 Oeste 33 Oeste 0 958.3 -1.5 48
2019-11-11 12:00:00 11.9 19 Oeste 33 Oeste 0 959.1 -0.8 48
2019-11-11 11:00:00 10.9 20 Oeste 32 Oeste 0 960.2 0.1 51
2019-11-11 10:00:00 8.8 14 Oeste 30 Sudoeste 0 959.8 -0.2 57
2019-11-11 09:00:00 7.5 16 Oeste 29 Sudoeste 0 959.9 -0.3 60
2019-11-11 08:00:00 6.7 15 Sudoeste 26 Sudoeste 0 960.1 -0.7 60
2019-11-11 07:00:00 6.2 10 Sudoeste 22 Sudoeste 0 960 -0.7 62
2019-11-11 06:00:00 5.9 12 Sudoeste 28 Oeste 0 960.2 -0.5 62
2019-11-11 05:00:00 5.8 15 Oeste 26 Oeste 0 960.8 -0.1 63
2019-11-11 04:00:00 5.4 14 Oeste 27 Oeste 0 960.7 -0.5 64
2019-11-11 03:00:00 5.5 19 Oeste 31 Oeste 0 960.7 0.1 63
2019-11-11 02:00:00 5.4 19 Oeste 36 Oeste 0 960.9 0.6 64
2019-11-11 01:00:00 5.9 21 Oeste 34 Oeste 0 961.2 1.5 63
2019-11-11 00:00:00 6.2 18 Oeste 44 Oeste 0 960.6 1.3 59
2019-11-10 23:00:00 6.5 22 Oeste 44 Noroeste 0 960.3 0.8 58
2019-11-10 22:00:00 6.5 21 Oeste 53 Oeste 0 959.7 0.9 58
2019-11-10 21:00:00 6.7 26 Oeste 48 Oeste 0 959.3 1 57
2019-11-10 20:00:00 6.8 24 Oeste 46 Oeste 0 959.5 1.5 58
2019-11-10 19:00:00 6.9 17 Oeste 49 Noroeste 0 958.8 1.2 65
2019-11-10 18:00:00 7.1 16 Oeste 46 Noroeste 0 958.3 1.1 63
2019-11-10 17:00:00 8.6 22 Noroeste 48 Noroeste 0 958 0.4 56
2019-11-10 16:00:00 9 29 Noroeste 50 Noroeste 0 957.6 -0.5 54
2019-11-10 15:00:00 10 28 Noroeste 49 Noroeste 0 957.2 -1.6 51
2019-11-10 14:00:00 10.2 36 Noroeste 56 Noroeste 0 957.6 -1.3 52
2019-11-10 13:00:00 10.1 31 Noroeste 47 Noroeste 0 958.1 -1.1 48
2019-11-10 12:00:00 10.3 26 Noroeste 47 Noroeste 0 958.8 -0.5 48
2019-11-10 11:00:00 9.2 30 Noroeste 49 Noroeste 0 958.9 0.2 53
2019-11-10 10:00:00 8.6 22 Noroeste 50 Noroeste 0 959.2 0.6 60
2019-11-10 09:00:00 7.2 21 Noroeste 48 Noroeste 0 959.3 1.1 66
2019-11-10 08:00:00 5.7 22 Oeste 44 Noroeste 0 958.7 1.4 76
2019-11-10 07:00:00 6 25 Noroeste 48 Noroeste 0 958.6 0.9 76
2019-11-10 06:00:00 6.3 25 Noroeste 50 Noroeste 0 958.2 -0.2 77
2019-11-10 05:00:00 6.4 33 Oeste 56 Oeste 0 957.3 -1.3 77
2019-11-10 04:00:00 6.2 26 Oeste 50 Oeste 0 957.7 -1.8 93
2019-11-10 03:00:00 6 16 Oeste 32 Oeste 0 958.4 0.8 98
2019-11-10 02:00:00 5.8 15 Oeste 44 Oeste 1 958.6 1.1 98
2019-11-10 01:00:00 -- 24 Noroeste 76 Noroeste 3.6 959.5 1.6 98
2019-11-10 00:00:00 10.9 16 Oeste 31 Oeste 0 957.6 -0.8 56
2019-11-09 23:00:00 11.2 16 Oeste 34 Sudoeste 0 957.5 -1.6 53
2019-11-09 22:00:00 11.5 16 Sudoeste 27 Sudoeste 0 957.9 -1.5 52
2019-11-09 21:00:00 12 8 Noroeste 26 Oeste 0 958.4 -1.3 51
2019-11-09 20:00:00 12.1 8 Noroeste 18 Noroeste 0 959.1 -0.9 52
2019-11-09 19:00:00 11.8 4 Sudoeste 14 Oeste 0 959.4 -0.7 54
2019-11-09 18:00:00 12.1 3 Oeste 6 Oeste 0 959.7 -0.9 54
2019-11-09 17:00:00 12.7 4 Norte 20 Noroeste 0 960 -1.3 48
2019-11-09 16:00:00 13.3 15 Noroeste 27 Noroeste 0 960.1 -1.8 45
2019-11-09 15:00:00 13.8 14 Noroeste 31 Oeste 0 960.6 -2.2 38
2019-11-09 14:00:00 13.9 18 Oeste 40 Oeste 0 961.3 -2.2 39
2019-11-09 13:00:00 14 21 Oeste 39 Oeste 0 961.9 -1.7 40
2019-11-09 12:00:00 12.7 18 Oeste 36 Oeste 0 962.8 -0.8 45
2019-11-09 11:00:00 11.6 19 Oeste 40 Oeste 0 963.5 0.1 49
2019-11-09 10:00:00 9.9 23 Oeste 39 Oeste 0 963.6 0.7 57
2019-11-09 09:00:00 8.1 17 Oeste 33 Oeste 0 963.6 0.9 63
2019-11-09 08:00:00 6.3 17 Oeste 29 Oeste 0 963.4 1.7 70
2019-11-09 07:00:00 6.2 19 Oeste 36 Oeste 0 962.9 1.3 69
2019-11-09 06:00:00 6.7 17 Oeste 44 Oeste 0 962.7 1.1 67
2019-11-09 05:00:00 7 28 Oeste 43 Oeste 0 961.7 0.1 64
2019-11-09 04:00:00 7.4 27 Oeste 42 Oeste 0 961.6 -0.2 62
2019-11-09 03:00:00 7.5 21 Oeste 41 Oeste 0 961.6 0.2 63
2019-11-09 02:00:00 7.9 22 Oeste 35 Oeste 0 961.6 0.3 64
2019-11-09 01:00:00 8.4 20 Oeste 38 Oeste 0 961.8 0.7 63
2019-11-09 00:00:00 7.9 8 Sudoeste 37 Noroeste 0.2 961.4 0.6 75
2019-11-08 23:00:00 8.2 17 Oeste 34 Oeste 0.2 961.3 0.7 74
2019-11-08 22:00:00 7.6 15 Oeste 43 Oeste 0.4 961.1 1.5 81
2019-11-08 21:00:00 7.4 23 Oeste 40 Oeste 0.4 960.8 1.9 81
2019-11-08 20:00:00 7.6 30 Noroeste 54 Noroeste 0.4 960.6 2.4 79
2019-11-08 19:00:00 8 17 Oeste 46 Noroeste 0 959.6 2.6 74
2019-11-08 18:00:00 8.5 17 Noroeste 39 Noroeste 0 958.9 2.9 65
2019-11-08 17:00:00 9.1 19 Noroeste 64 Oeste 0 958.2 2.2 59
2019-11-08 16:00:00 11.7 32 Oeste 57 Oeste 0 957 0.8 37
2019-11-08 15:00:00 12.2 28 Oeste 58 Oeste 0 956 -0.5 34
2019-11-08 14:00:00 13.2 30 Oeste 53 Oeste 0 956 -0.5 32
2019-11-08 13:00:00 12.5 31 Oeste 55 Oeste 0 956.2 -0.2 35
2019-11-08 12:00:00 11.9 27 Oeste 45 Oeste 0 956.5 0.2 38
2019-11-08 11:00:00 10.6 25 Oeste 47 Oeste 0 956.5 0.8 42
2019-11-08 10:00:00 9.3 29 Oeste 50 Oeste 0 956.4 1.3 45
2019-11-08 09:00:00 7.1 19 Oeste 42 Oeste 0 956.3 1.2 51
2019-11-08 08:00:00 6.7 24 Oeste 47 Oeste 0 955.7 1.4 51
2019-11-08 07:00:00 6.5 26 Oeste 50 Oeste 0 955.1 0.8 50
2019-11-08 06:00:00 5.8 15 Oeste 40 Oeste 0 955.1 0.8 53
2019-11-08 05:00:00 6.5 29 Oeste 48 Oeste 0 954.3 -0.1 48
2019-11-08 04:00:00 6.5 24 Oeste 50 Oeste 0 954.3 -0.3 51
2019-11-08 03:00:00 6.9 22 Oeste 36 Oeste 0 954.3 -0.5 55
2019-11-08 02:00:00 6.7 8 Oeste 25 Oeste 0 954.4 -0.5 63
2019-11-08 01:00:00 7.7 16 Oeste 27 Oeste 0 954.6 -0.3 60
2019-11-08 00:00:00 8 17 Oeste 29 Oeste 0 954.8 0 58
2019-11-07 23:00:00 8.1 12 Oeste 23 Oeste 0 954.9 0.7 62
2019-11-07 22:00:00 7.5 12 Oeste 30 Noroeste 0 954.9 0.8 69
2019-11-07 21:00:00 7.8 20 Noroeste 37 Noroeste 0 954.8 0.8 70
2019-11-07 20:00:00 6.7 4 Sur 9 Sudoeste 0 954.2 -0.1 83
2019-11-07 19:00:00 7.1 6 Oeste 9 Oeste 0 954.1 -0.8 82
2019-11-07 18:00:00 9.5 5 Noroeste 8 Noroeste 0 954 -1.1 73
2019-11-07 17:00:00 12.1 4 Noroeste 15 Noroeste 0 954.3 -0.8 58
2019-11-07 16:00:00 12 10 Noroeste 25 Noroeste 0 954.9 -0.1 59
2019-11-07 15:00:00 10.7 19 Noroeste 36 Noroeste 0 955.1 -0.4 73
2019-11-07 14:00:00 12.1 19 Noroeste 34 Norte 0 955.1 -0.2 74
2019-11-07 13:00:00 13 9 Noroeste 23 Noroeste 0 955 -- 73
2019-11-07 12:00:00 12.4 12 Noroeste 25 Noroeste 0.2 955.5 -- 82
2019-11-07 11:00:00 11 15 Noroeste -- -- -- 955.3 -- 84
2019-11-07 10:00:00 -- -- -- -- -- -- -- -- --
2019-11-07 09:00:00 -- -- -- -- -- -- -- -- --
2019-11-07 08:00:00 -- -- -- -- -- -- -- -- --
2019-11-07 07:00:00 -- -- -- -- -- -- -- -- --
2019-11-07 06:00:00 -- -- -- -- -- -- -- -- --
2019-11-07 05:00:00 -- -- -- -- -- -- -- -- --
2019-11-07 04:00:00 -- -- -- -- -- -- -- -- --
2019-11-07 03:00:00 -- -- -- -- -- -- -- -- --
2019-11-07 02:00:00 -- -- -- -- -- -- -- -- --
2019-11-07 01:00:00 -- -- -- -- -- -- -- -- --
2019-11-07 00:00:00 -- -- -- -- -- -- -- -- --
2019-11-06 23:00:00 -- -- -- -- -- -- -- -- --
2019-11-06 22:00:00 -- -- -- -- -- -- -- -- --
2019-11-06 21:00:00 -- -- -- -- -- -- -- -- --
2019-11-06 20:00:00 -- -- -- -- -- -- -- -- --
2019-11-06 19:00:00 9.7 5 Oeste 8 Oeste 0 958.2 0 60
2019-11-06 18:00:00 12.5 4 Norte 18 Noroeste 0 958.1 -0.4 49
2019-11-06 17:00:00 15 16 Noroeste 29 Noroeste 0 958.1 -0.9 38
2019-11-06 16:00:00 16 18 Noroeste 37 Noroeste 0 958.2 -1.4 34
2019-11-06 15:00:00 16.1 22 Noroeste 39 Noroeste 0 958.5 -1.9 34
2019-11-06 14:00:00 14.6 21 Noroeste 37 Noroeste 0 959 -1.3 39
2019-11-06 13:00:00 14.8 24 Noroeste 41 Noroeste 0 959.6 -0.6 39
2019-11-06 12:00:00 14 23 Oeste 41 Noroeste 0 960.4 0.3 43
2019-11-06 11:00:00 13.1 23 Noroeste 39 Oeste 0 960.3 0.8 47
2019-11-06 10:00:00 12.9 17 Oeste 34 Oeste 0 960.2 1.3 48
2019-11-06 09:00:00 10.5 14 Oeste 28 Oeste 0 960.1 1.4 57
2019-11-06 08:00:00 9.4 12 Oeste 26 Oeste 0 959.5 1.1 59
2019-11-06 07:00:00 10.3 17 Oeste 37 Oeste 0 958.9 1 56
2019-11-06 06:00:00 10 13 Oeste 31 Oeste 0 958.7 1.1 61
2019-11-06 05:00:00 9.8 19 Oeste 33 Oeste 0 958.4 0.7 61
2019-11-06 04:00:00 9.5 18 Oeste 31 Oeste 0 957.9 0.4 61
2019-11-06 03:00:00 9.3 18 Oeste 27 Oeste 0 957.6 0.8 62
2019-11-06 02:00:00 9.2 12 Oeste 26 Oeste 0 957.7 1.1 64
2019-11-06 01:00:00 9.9 20 Oeste 32 Oeste 0 957.5 0.9 61
2019-11-06 00:00:00 10.5 16 Oeste 40 Noroeste 0 956.8 0.7 58
2019-11-05 23:00:00 9.8 13 Oeste 22 Noroeste 0 956.6 1.2 68
2019-11-05 22:00:00 9.2 4 Sudoeste 14 Noroeste 0 956.6 1.5 73
2019-11-05 21:00:00 10.5 8 Noroeste 30 Noroeste 0.2 956.1 1.8 73
2019-11-05 20:00:00 11.6 14 Oeste 31 Oeste 0 955.4 2.2 56
2019-11-05 19:00:00 12 18 Oeste 36 Oeste 0 955.1 2.4 52
2019-11-05 18:00:00 12.9 26 Oeste 49 Oeste 0 954.3 1.7 46
2019-11-05 17:00:00 14.9 22 Noroeste 47 Oeste 0 953.2 0.7 38
2019-11-05 16:00:00 15.8 26 Oeste 52 Oeste 0 952.7 -0.3 36
2019-11-05 15:00:00 15.6 31 Noroeste 53 Oeste 0 952.6 -0.9 34
2019-11-05 14:00:00 16 28 Oeste 49 Oeste 0 952.5 -1.1 36
2019-11-05 13:00:00 15.7 26 Oeste 53 Oeste 0 953 -0.1 36
2019-11-05 12:00:00 14.7 25 Oeste 49 Oeste 0 953.5 0.7 40
2019-11-05 11:00:00 13.6 30 Oeste 62 Oeste 0 953.6 1.7 44
2019-11-05 10:00:00 12.4 28 Oeste 51 Oeste 0 953.1 1.3 49
2019-11-05 09:00:00 11.2 17 Oeste 33 Oeste 0 952.8 1.3 58
2019-11-05 08:00:00 9.8 17 Oeste 32 Oeste 0 951.9 0.5 66
2019-11-05 07:00:00 8.5 10 Oeste 15 Oeste 0 951.8 0.4 74
2019-11-05 06:00:00 9.5 7 Oeste 20 Oeste 0 951.5 -0.1 70
2019-11-05 05:00:00 10.1 8 Noroeste 24 Oeste 0 951.4 -0.3 68
2019-11-05 04:00:00 11.3 14 Oeste 26 Oeste 0 951.4 -0.3 64
2019-11-05 03:00:00 12 11 Oeste 22 Oeste 0 951.6 0 68
2019-11-05 02:00:00 11.9 8 Oeste 22 Oeste 0 951.7 0.1 77
2019-11-05 01:00:00 12.5 15 Sudoeste 23 Sudoeste 0 951.7 0.6 79
2019-11-05 00:00:00 12.4 10 Oeste 19 Oeste 0.4 951.6 1.1 85
2019-11-04 23:00:00 12.4 10 Sudoeste 39 Oeste 1.4 951.6 1.4 89
2019-11-04 22:00:00 14.1 7 Norte 24 Norte 0 951.1 1 86
2019-11-04 21:00:00 17.2 10 Oeste 33 Sudoeste 0 950.5 0.4 45
2019-11-04 20:00:00 17.9 23 Sudoeste 38 Sudoeste 0 950.2 -0.4 41
2019-11-04 19:00:00 18 17 Sudoeste 36 Sudoeste 0 950.1 -0.9 40
2019-11-04 18:00:00 19 18 Sudoeste 44 Sudoeste 0 950.1 -1.3 37
2019-11-04 17:00:00 21.3 22 Sudoeste 39 Sudoeste 0 950.6 -1.4 31
2019-11-04 16:00:00 21.8 26 Oeste 44 Oeste 0 951 -1.6 29
2019-11-04 15:00:00 22.2 23 Oeste 39 Oeste 0 951.4 -1.8 31
2019-11-04 14:00:00 21.6 23 Oeste 48 Oeste 0 952 -1.9 31
2019-11-04 13:00:00 22.2 22 Sudoeste 45 Sudoeste 0 952.6 -1.4 30
2019-11-04 12:00:00 21.6 23 Sudoeste 42 Sudoeste 0 953.2 -1.2 32
2019-11-04 11:00:00 20.2 18 Sudoeste 36 Sudoeste 0 953.9 -0.1 35
2019-11-04 10:00:00 18.7 27 Oeste 46 Sudoeste 0 954 0.2 41
2019-11-04 09:00:00 17.3 15 Oeste 30 Oeste 0 954.4 1 49
2019-11-04 08:00:00 15.7 21 Oeste 39 Oeste 0 954 0.4 53
2019-11-04 07:00:00 15.4 19 Oeste 34 Oeste 0 953.8 -0.1 57
2019-11-04 06:00:00 14.9 9 Oeste 35 Noroeste 0 953.4 -0.3 59
2019-11-04 05:00:00 14.9 12 Oeste 31 Sudoeste 0 953.6 -0.5 57
2019-11-04 04:00:00 16.2 17 Oeste 36 Sudoeste 0 953.9 -0.8 49
2019-11-04 03:00:00 17.2 23 Oeste 46 Sudoeste 0 953.7 -1 46
2019-11-04 02:00:00 16.4 18 Sudoeste 30 Sudoeste 0 954.1 -0.6 45
2019-11-04 01:00:00 14.2 10 Oeste 32 Sudoeste 0 954.7 -0.2 48
2019-11-04 00:00:00 14.9 18 Oeste 35 Oeste 0 954.7 -0.2 43
2019-11-03 23:00:00 14.7 21 Oeste 39 Sudoeste 0 954.7 -0.2 43
2019-11-03 22:00:00 14.6 13 Sudoeste 29 Oeste 0 954.9 0.9 42
2019-11-03 21:00:00 14.7 14 Oeste 41 Oeste 0 954.9 2 42
2019-11-03 20:00:00 13.9 14 Oeste 22 Oeste 0 954.9 2.5 45
2019-11-03 19:00:00 13.8 7 Oeste 22 Oeste 0 954 2.4 45
2019-11-03 18:00:00 15.2 16 Oeste 45 Oeste 0 952.9 2 39
2019-11-03 17:00:00 17.4 27 Oeste 47 Oeste 0 952.4 1.9 32
2019-11-03 16:00:00 17.4 15 Noroeste 26 Norte 0 951.6 1.6 39
2019-11-03 15:00:00 16.1 14 Noroeste 26 Norte 0 950.9 1.5 46
2019-11-03 14:00:00 15.4 17 Noroeste 37 Norte 0 950.5 1.7 51
2019-11-03 13:00:00 15.6 20 Noroeste 34 Norte 0 950 1.7 62
2019-11-03 12:00:00 15.1 18 Noroeste 41 Noroeste 0 949.4 4.6 68
2019-11-03 11:00:00 12.7 29 Noroeste 46 Noroeste 0 948.8 6.2 76
2019-11-03 10:00:00 9.7 20 Noroeste 77 Noroeste 1.4 948.3 5.1 97
2019-11-03 09:00:00 18 34 Oeste 68 Oeste 0 944.8 0.7 49
2019-11-03 08:00:00 17.8 27 Oeste 60 Sudoeste 0 942.6 -2 44
2019-11-03 07:00:00 16.9 21 Sudoeste 46 Sudoeste 0 943.2 -2.3 47
2019-11-03 06:00:00 17 27 Sudoeste 54 Sudoeste 0 944.1 -2.1 46
2019-11-03 05:00:00 16.1 17 Oeste 32 Oeste 0 944.6 -2.3 48
2019-11-03 04:00:00 16.6 10 Sudoeste 26 Sudoeste 0 945.5 -2.1 47
2019-11-03 03:00:00 17.4 15 Oeste 33 Sudoeste 0 946.2 -2.1 44
2019-11-03 02:00:00 17.1 6 Oeste 21 Sudoeste 0 946.9 -1.8 52
2019-11-03 01:00:00 17.9 11 Sudoeste 23 Sudoeste 0 947.6 -1.6 49
2019-11-03 00:00:00 18.3 16 Sudoeste 24 Sudoeste 0 948.3 -1.5 52
2019-11-02 23:00:00 17.9 12 Sudoeste 19 Sudoeste 0 948.7 -2.1 51
2019-11-02 22:00:00 17.2 2 Sudeste 9 Sudoeste 0 949.2 -2 57
2019-11-02 21:00:00 18.1 6 Oeste 16 Sudoeste 0 949.8 -1.2 52
2019-11-02 20:00:00 18.2 8 Sudoeste 20 Sudoeste 0 950.8 -0.1 54
2019-11-02 19:00:00 19.4 14 Oeste 28 Oeste 0 951.2 -0.3 49
2019-11-02 18:00:00 20 10 Oeste 26 Oeste 0 951 -0.6 45
2019-11-02 17:00:00 22.4 17 Sudoeste 35 Oeste 0 950.9 -1.5 37
2019-11-02 16:00:00 23.1 19 Oeste 40 Oeste 0 951.5 -1.9 37
2019-11-02 15:00:00 24.3 23 Oeste 41 Oeste 0 951.6 -2.6 33
2019-11-02 14:00:00 24.4 23 Oeste 41 Oeste 0 952.4 -2.6 32
2019-11-02 13:00:00 23.4 22 Oeste 46 Oeste 0 953.4 -1.8 34
2019-11-02 12:00:00 23 21 Oeste 35 Oeste 0 954.2 -1.4 40
2019-11-02 11:00:00 22.2 21 Oeste 33 Sudoeste 0 955 -0.5 44
2019-11-02 10:00:00 19.4 11 Oeste 28 Oeste 0 955.2 -0.3 60
2019-11-02 09:00:00 19.2 11 Oeste 24 Oeste 0 955.6 0.5 58
2019-11-02 08:00:00 16.1 6 Oeste 14 Noroeste 0 955.5 -0.2 69
2019-11-02 07:00:00 17.1 5 Norte 52 Sudoeste 0 955.5 -0.5 65
2019-11-02 06:00:00 17.6 20 Oeste 40 Sudoeste 0 955.1 -1.3 62
2019-11-02 05:00:00 17.8 22 Oeste 39 Oeste 0 955.7 -1.4 64
2019-11-02 04:00:00 17.9 22 Oeste 39 Oeste 0 956 -1.5 65
2019-11-02 03:00:00 18.2 21 Oeste 36 Oeste 0 956.4 -1.6 67
2019-11-02 02:00:00 18.4 14 Oeste 35 Sudoeste 0 957.1 -1.7 66
2019-11-02 01:00:00 18.8 19 Oeste 44 Oeste 0 957.5 -1.6 66
2019-11-02 00:00:00 18.9 18 Oeste 41 Sudoeste 0 958 -1.7 67
2019-11-01 23:00:00 19.1 15 Oeste 30 Sudoeste 0 958.8 -1.1 68
2019-11-01 22:00:00 18.9 18 Sudoeste 31 Sudoeste 0 959.1 -1.2 73
2019-11-01 21:00:00 17.1 8 Sudoeste 13 Sudoeste 0 959.7 -0.9 91
2019-11-01 20:00:00 17.4 4 Sudeste 10 Sudoeste 0.4 959.9 -0.2 90
2019-11-01 19:00:00 17.5 5 Sudoeste 11 Sur 0.2 960.3 -0.2 90
2019-11-01 18:00:00 18.2 6 Sudoeste 15 Noroeste 3.6 960.6 -0.4 86
2019-11-01 17:00:00 21.6 5 Sudeste 9 Oeste 0 960.1 -1.3 54
2019-11-01 16:00:00 22.9 5 Noroeste 19 Noroeste 0 960.5 -2.1 47
2019-11-01 15:00:00 22.5 8 Noroeste 20 Noroeste 0 961 -2.5 47
2019-11-01 14:00:00 23.3 9 Noroeste 30 Noroeste 0 961.4 -2.7 45
2019-11-01 13:00:00 23.6 16 Noroeste 27 Noroeste 0 962.6 -1.8 45
2019-11-01 12:00:00 22 14 Noroeste 32 Oeste 0 963.5 -0.7 54
2019-11-01 11:00:00 21 10 Oeste 28 Oeste 0 964.1 -0.4 61
2019-11-01 10:00:00 19.1 3 Oeste 23 Oeste 0 964.4 0 68
2019-11-01 09:00:00 18.6 11 Oeste 19 Oeste 0 964.2 -0.5 68
2019-11-01 08:00:00 15.4 6 Oeste 11 Sudoeste 0 964.5 -0.3 78
2019-11-01 07:00:00 15.7 9 Sudoeste 14 Sudoeste 0 964.4 -0.8 76
2019-11-01 06:00:00 16.3 7 Oeste 14 Oeste 0 964.7 -0.9 72
2019-11-01 05:00:00 16.3 9 Sudoeste 23 Sudoeste 0 964.8 -1.2 73
2019-11-01 04:00:00 16.3 13 Oeste 24 Sudoeste 0 965.2 -1.6 73
2019-11-01 03:00:00 12.8 2 Norte 16 Sudoeste 0 965.6 -1.6 84
2019-11-01 02:00:00 12.7 2 Sur 17 Sudoeste 0 966 -1.1 82
2019-11-01 01:00:00 13.1 9 Oeste 13 Oeste 0 966.8 -0.7 81
2019-11-01 00:00:00 13.3 7 Oeste 12 Oeste 0 967.2 -0.1 80
2019-10-31 23:00:00 15 8 Oeste 20 Sudoeste 0 967.1 0 70
2019-10-31 22:00:00 14.6 9 Sudoeste 12 Sudoeste 0 967.5 0.7 71
2019-10-31 21:00:00 15.1 8 Oeste 14 Oeste 0 967.3 0.9 65
2019-10-31 20:00:00 16.2 9 Oeste 23 Oeste 0 967.1 1 59
2019-10-31 19:00:00 17.1 11 Oeste 29 Noroeste 0 966.8 0.7 59
2019-10-31 18:00:00 18.6 21 Noroeste 35 Noroeste 0 966.4 0.4 52
2019-10-31 17:00:00 20.1 23 Noroeste 42 Noroeste 0 966.1 -0.2 48
2019-10-31 16:00:00 20.6 23 Noroeste 39 Noroeste 0 966.1 -0.6 49
2019-10-31 15:00:00 20.7 27 Noroeste 41 Noroeste 0 966 -1.3 48
2019-10-31 14:00:00 21.6 22 Noroeste 39 Noroeste 0 966.3 -1.3 45
2019-10-31 13:00:00 21.2 23 Noroeste 42 Noroeste 0 966.7 -0.8 47
2019-10-31 12:00:00 19.7 24 Noroeste 41 Noroeste 0 967.3 0.2 58
2019-10-31 11:00:00 18.2 10 Oeste 29 Oeste 0 967.6 0.9 65
2019-10-31 10:00:00 17.2 12 Oeste 26 Oeste 0 967.5 1.7 71
2019-10-31 09:00:00 16.3 11 Oeste 24 Noroeste 0 967.1 1.5 81
2019-10-31 08:00:00 16.4 8 Noroeste 19 Noroeste 0 966.7 1.1 76
2019-10-31 07:00:00 16.3 8 Oeste 17 Sudoeste 0 965.8 0.2 73
2019-10-31 06:00:00 15.5 8 Oeste 14 Oeste 0 965.6 -0.4 78
2019-10-31 05:00:00 14.8 4 Sudoeste 11 Sudoeste 0 965.6 -0.4 78
2019-10-31 04:00:00 15.3 9 Oeste 12 Sudoeste 0 965.6 -0.7 75
2019-10-31 03:00:00 16.1 8 Oeste 18 Oeste 0 966 -0.6 70
2019-10-31 02:00:00 15.8 7 Oeste 12 Oeste 0 966 -0.6 70
2019-10-31 01:00:00 15.9 6 Oeste 15 Sudoeste 0 966.3 -0.2 66
2019-10-31 00:00:00 17.3 9 Sudoeste 18 Sudoeste 0 966.6 0.4 60
2019-10-30 23:00:00 18.3 12 Sudoeste 19 Sudoeste 0 966.6 0.5 57
2019-10-30 22:00:00 17.5 10 Sudoeste 17 Sudoeste 0 966.5 0.5 63
2019-10-30 21:00:00 17.8 9 Sudoeste 16 Sudoeste 0 966.2 0.3 61
2019-10-30 20:00:00 16.9 8 Sudoeste 12 Sudoeste 0 966.1 0.2 69
2019-10-30 19:00:00 16.6 2 Sudoeste 4 Oeste 0 966 0.1 71
2019-10-30 18:00:00 19 0 Calma 4 Norte 0 965.9 -0.3 59
2019-10-30 17:00:00 20.9 2 Nordeste 7 Norte 0 965.9 -0.5 46
2019-10-30 16:00:00 21.7 3 Norte 10 Noroeste 0 965.9 -0.9 42
2019-10-30 15:00:00 21.4 5 Nordeste 17 Norte 0 966.2 -1.1 42
2019-10-30 14:00:00 21.6 9 Norte 23 Noroeste 0 966.4 -1.2 42
2019-10-30 13:00:00 21.8 14 Noroeste 28 Oeste 0 966.8 -0.8 41
2019-10-30 12:00:00 21.7 15 Oeste 26 Oeste -- 967.3 -0.2 40
2019-10-30 11:00:00 20.7 9 Sur -- -- 0 967.6 0.7 47
2019-10-30 10:00:00 18 -- -- -- -- 0 967.6 1.3 59
2019-10-30 09:00:00 14.3 -- -- -- -- 0 967.5 1.3 72
2019-10-30 08:00:00 13.3 -- -- -- -- 0 966.9 0.7 77
2019-10-30 07:00:00 13.4 -- -- -- -- 0 966.3 0 77
2019-10-30 06:00:00 14.2 -- -- -- -- 0 966.2 0 75
2019-10-30 05:00:00 14.6 -- -- -- -- 0 966.2 0.2 75
2019-10-30 04:00:00 14.5 -- -- -- -- 0 966.3 0.3 77
2019-10-30 03:00:00 14.8 -- -- -- -- 0 966.2 0.4 77
2019-10-30 02:00:00 15.1 -- -- -- -- 0 966 0.3 77
2019-10-30 01:00:00 14.2 -- -- -- -- 0 966 0.7 82
2019-10-30 00:00:00 15.2 -- -- -- -- 0 965.8 1 76
2019-10-29 23:00:00 15.8 -- -- -- -- 0 965.7 1.2 73
2019-10-29 22:00:00 15.7 -- -- -- -- 0 965.3 1.3 75
2019-10-29 21:00:00 16.2 -- -- -- -- 0 964.8 1.1 73
2019-10-29 20:00:00 16.3 -- -- -- -- 0 964.5 1.2 73
2019-10-29 19:00:00 16.4 -- -- -- -- 0 964 0.9 71
2019-10-29 18:00:00 18.8 -- -- -- -- 0 963.7 0.7 61
2019-10-29 17:00:00 21.1 -- -- -- -- 0 963.3 0.1 52
2019-10-29 16:00:00 20.3 -- -- -- -- 0 963.1 -0.5 54
2019-10-29 15:00:00 20.6 -- -- -- -- 0 963 -1 52
2019-10-29 14:00:00 20.4 -- -- -- -- 0 963.2 -1 53
2019-10-29 13:00:00 19.7 -- -- -- -- 0 963.6 -0.3 53
2019-10-29 12:00:00 19.4 -- -- -- -- 0 964 0.7 56
2019-10-29 11:00:00 18.7 -- -- -- -- 0 964.2 1.6 54
2019-10-29 10:00:00 17 -- -- -- -- 0 963.9 1.9 64
2019-10-29 09:00:00 15 -- -- -- -- 0 963.3 1.6 69
2019-10-29 08:00:00 12.6 -- -- -- -- 0 962.6 1 77
2019-10-29 07:00:00 12.8 -- -- -- -- 0 962 0.3 75
2019-10-29 06:00:00 12.9 -- -- -- -- 0 961.7 -0.2 75
2019-10-29 05:00:00 12.6 -- -- -- -- 0 961.6 -0.4 77
2019-10-29 04:00:00 12.2 -- -- -- -- 0 961.7 -0.4 80
2019-10-29 03:00:00 12.2 -- -- -- -- 0 961.9 -0.4 80
2019-10-29 02:00:00 12.5 -- -- -- -- 0 962 -0.4 81
2019-10-29 01:00:00 12.7 -- -- -- -- 0 962.1 -0.1 81
2019-10-29 00:00:00 13.1 -- -- -- -- 0 962.3 0 80
2019-10-28 23:00:00 12.7 -- -- -- -- 0 962.4 0.2 86
2019-10-28 22:00:00 12.6 -- -- -- -- 0 962.2 -0.2 91
2019-10-28 21:00:00 12.4 -- -- -- -- 0 962.3 0.2 94
2019-10-28 20:00:00 12.8 -- -- -- -- 0 962.2 -0.1 92
2019-10-28 19:00:00 14.4 -- -- -- -- 0 962.4 -0.2 87
2019-10-28 18:00:00 16.9 -- -- -- -- 0 962.1 -0.5 79
2019-10-28 17:00:00 17.9 -- -- -- -- 0 962.3 -0.7 73
2019-10-28 16:00:00 18.8 -- -- -- -- 0 962.6 -0.9 69
2019-10-28 15:00:00 18.2 -- -- -- -- 0 962.6 -1.6 72
2019-10-28 14:00:00 17.9 -- -- -- -- 0 963 -1.1 74
2019-10-28 13:00:00 17.5 -- -- -- -- 0 963.5 -0.4 77
2019-10-28 12:00:00 17 -- -- -- -- 0 964.2 0.5 78
2019-10-28 11:00:00 16.8 -- -- -- -- 0 964.1 0.5 75
2019-10-28 10:00:00 16.9 -- -- -- -- 0 963.9 0.4 69
2019-10-28 09:00:00 15.2 -- -- -- -- 0 963.7 0.1 78
2019-10-28 08:00:00 13.2 -- -- -- -- 0 963.6 -0.3 86
2019-10-28 07:00:00 12.7 -- -- -- -- 0 963.5 -0.6 89
2019-10-28 06:00:00 12.8 -- -- -- -- 0 963.6 -0.8 89
2019-10-28 05:00:00 13.6 -- -- -- -- 0 963.9 -1.1 85
2019-10-28 04:00:00 13.9 -- -- -- -- 0 964.1 -1 84
2019-10-28 03:00:00 14 -- -- -- -- 0 964.4 -1 85
2019-10-28 02:00:00 13.9 -- -- -- -- 0 965 -0.5 85
2019-10-28 01:00:00 14.2 -- -- -- -- 0 965.1 -0.8 84
2019-10-28 00:00:00 14.4 -- -- -- -- 0 965.4 -0.5 84
2019-10-27 23:00:00 14 -- -- -- -- 0 965.5 -0.6 87
2019-10-27 22:00:00 13.8 -- -- -- -- 0 965.9 0.4 88
2019-10-27 21:00:00 13 -- -- -- -- 0 965.9 0.4 87
2019-10-27 20:00:00 14.1 -- -- -- -- 0 966.1 0.7 83
2019-10-27 19:00:00 15.1 -- -- -- -- 0 965.5 -0.3 81
2019-10-27 18:00:00 18.1 -- -- -- -- 0 965.5 -0.5 61
2019-10-27 17:00:00 20.1 -- -- -- -- 0 965.4 -1.1 54
2019-10-27 16:00:00 20.4 -- -- -- -- 0 965.8 -1.2 54
2019-10-27 15:00:00 19.2 -- -- -- -- 0 966 -1.5 57
2019-10-27 14:00:00 19.2 -- -- -- -- 0 966.5 -1.2 55
2019-10-27 13:00:00 19.4 -- -- -- -- 0 967 -0.8 53
2019-10-27 12:00:00 18.5 -- -- -- -- 0 967.5 -0.3 55
2019-10-27 11:00:00 18.9 -- -- -- -- 0 967.7 0.2 47
2019-10-27 10:00:00 16.4 -- -- -- -- 0 967.8 0.8 62
2019-10-27 09:00:00 14.4 -- -- -- -- 0 967.8 0.8 67
2019-10-27 08:00:00 11 -- -- -- -- 0 967.5 0.8 84
2019-10-27 07:00:00 10.2 -- -- -- -- 0 967 0.3 89
2019-10-27 06:00:00 10.6 -- -- -- -- 0 967 -0.1 88
2019-10-27 05:00:00 12 -- -- -- -- 0 966.7 -0.9 83
2019-10-27 04:00:00 12.7 -- -- -- -- 0 966.7 -0.7 81
2019-10-27 03:00:00 12.4 -- -- -- -- 0 967.1 -0.2 86
2019-10-27 02:00:00 12.5 -- -- -- -- 0 967.6 0.5 86
2019-10-27 01:00:00 15.2 -- -- -- -- 0 967.3 0.1 80
2019-10-27 00:00:00 14.9 -- -- -- -- 0 967.1 0.4 84
2019-10-26 23:00:00 15.6 -- -- -- -- 0 967.4 1 82
2019-10-26 22:00:00 15.1 -- -- -- -- 0 967.2 1.4 85
2019-10-26 21:00:00 14.7 -- -- -- -- 0 966.7 1.2 82
2019-10-26 20:00:00 16.3 -- -- -- -- 0 966.4 0.6 74
2019-10-26 19:00:00 19.2 -- -- -- -- 0 965.8 -0.3 60
2019-10-26 18:00:00 21.1 -- -- -- -- 0 965.5 -1 49
2019-10-26 17:00:00 21.5 -- -- -- -- 0 965.8 -1.4 44
2019-10-26 16:00:00 21.2 -- -- -- -- 0 966.1 -1.8 47
2019-10-26 15:00:00 20.4 -- -- -- -- 0 966.5 -1.7 47
2019-10-26 14:00:00 19.9 -- -- -- -- 0 967.2 -0.7 48
2019-10-26 13:00:00 19.2 -- -- -- -- 0 967.9 0.2 46
2019-10-26 12:00:00 18.3 -- -- -- -- 0 968.2 0.9 47
2019-10-26 11:00:00 18 -- -- -- -- 0 967.9 0.9 47
2019-10-26 10:00:00 15.2 -- -- -- -- 0 967.7 0.7 59
2019-10-26 09:00:00 11.7 -- -- -- -- 0 967.3 0.5 74
2019-10-26 08:00:00 11.2 -- -- -- -- 0 967 0.2 76
2019-10-26 07:00:00 11 -- -- -- -- 0 967 0.3 76
2019-10-26 06:00:00 11.4 -- -- -- -- 0 966.8 -0.1 76
2019-10-26 05:00:00 11.6 -- -- -- -- 0 966.8 -0.3 76
2019-10-26 04:00:00 12.3 -- -- -- -- 0 966.7 -0.3 74
2019-10-26 03:00:00 13 -- -- -- -- 0 966.9 -0.4 72
2019-10-26 02:00:00 13.3 -- -- -- -- 0 967.1 -0.2 74
2019-10-26 01:00:00 14.1 -- -- -- -- 0 967 -0.2 72
2019-10-26 00:00:00 14.6 -- -- -- -- 0 967.3 0.4 68
2019-10-25 23:00:00 14.9 -- -- -- -- 0 967.3 0.5 71
2019-10-25 22:00:00 14.7 -- -- -- -- 0 967.2 0.8 76
2019-10-25 21:00:00 14.5 -- -- -- -- 0 966.9 0.7 82
2019-10-25 20:00:00 16 -- -- -- -- 0 966.8 0.4 76
2019-10-25 19:00:00 20.2 -- -- -- -- 0 966.4 -0.4 53
2019-10-25 18:00:00 22.3 -- -- -- -- 0 966.2 -1.1 42
2019-10-25 17:00:00 23 -- -- -- -- 0 966.4 -1.6 41
2019-10-25 16:00:00 22.1 -- -- -- -- 0 966.8 -1.8 41
2019-10-25 15:00:00 21.9 -- -- -- -- 0 967.3 -1.6 42
2019-10-25 14:00:00 21.4 -- -- -- -- 0 968 -1 42
2019-10-25 13:00:00 20.4 -- -- -- -- 0 968.6 -- 44
2019-10-25 12:00:00 19.4 -- -- -- -- 0 968.9 0.1 46
2019-10-25 11:00:00 18.4 -- -- -- -- -- 969 0.6 49
2019-10-25 10:00:00 -- -- -- -- -- -- -- -- --
2019-10-25 09:00:00 12.8 -- -- -- -- 0 968.8 0.6 69
2019-10-25 08:00:00 11.7 -- -- -- -- 0 968.4 0.4 74
2019-10-25 07:00:00 12.4 -- -- -- -- 0 968.2 0.2 70
2019-10-25 06:00:00 12.9 -- -- -- -- 0 968.2 -0.1 68
2019-10-25 05:00:00 12.8 -- -- -- -- 0 968 -0.5 67
2019-10-25 04:00:00 12.9 -- -- -- -- 0 968 -0.3 67
2019-10-25 03:00:00 11.7 -- -- -- -- 0 968.3 0.3 74
2019-10-25 02:00:00 12.2 -- -- -- -- 0 968.5 0.8 70
2019-10-25 01:00:00 12.2 -- -- -- -- 0 968.3 1.2 70
2019-10-25 00:00:00 12.2 -- -- -- -- 0 968 1.7 71
2019-10-24 23:00:00 13.3 -- -- -- -- 0 967.7 2.1 65
2019-10-24 22:00:00 12.7 -- -- -- -- 0 967.1 2.6 66
2019-10-24 21:00:00 12.4 -- -- -- -- 0 966.3 2.4 65
2019-10-24 20:00:00 13.4 -- -- -- -- 0 965.6 1.9 64
2019-10-24 19:00:00 15.3 -- -- -- -- 0 964.5 1.2 56
2019-10-24 18:00:00 17.1 -- -- -- -- 0 963.9 0.5 45
2019-10-24 17:00:00 17.2 -- -- -- -- 0 963.7 0.1 45
2019-10-24 16:00:00 17 18 Oeste 30 Oeste 0 963.3 -0.8 46
2019-10-24 15:00:00 15.7 17 Oeste 29 Oeste 0 963.4 -0.1 47
2019-10-24 14:00:00 15.2 17 Noroeste 31 Noroeste 0 963.6 0.9 51
2019-10-24 13:00:00 13.2 17 Noroeste 32 Oeste 0 964.1 2.3 65
2019-10-24 12:00:00 12 17 Noroeste 25 Noroeste 0 963.5 2.6 74
2019-10-24 11:00:00 11.7 6 Noroeste 15 Sudoeste 0 962.7 2.7 79
2019-10-24 10:00:00 10.8 8 Oeste 13 Oeste 0 961.8 2.7 84
2019-10-24 09:00:00 10.1 9 Sudoeste 15 Sudoeste 0 960.9 2.5 79
2019-10-24 08:00:00 9.3 10 Sudoeste 13 Sudoeste 0 960 2 76
2019-10-24 07:00:00 9.2 9 Sudoeste 21 Sudoeste 0 959.1 1.7 75
2019-10-24 06:00:00 9 13 Sudoeste 21 Sudoeste 0 958.4 1.2 70
2019-10-24 05:00:00 8.8 14 Sudoeste 22 Sudoeste 0 958 1.3 71
2019-10-24 04:00:00 8.6 9 Sudoeste 14 Sudoeste 0 957.4 1.4 74
2019-10-24 03:00:00 8.4 8 Sudoeste 13 Oeste 0 957.2 1.3 78
2019-10-24 02:00:00 9 7 Oeste 13 Oeste 0 956.7 0.9 77
2019-10-24 01:00:00 10 5 Sudoeste 15 Sudoeste 0 956 1.1 68
2019-10-24 00:00:00 11.5 9 Oeste 24 Oeste 0 955.9 1.7 65
2019-10-23 23:00:00 12.5 12 Oeste 22 Oeste 0 955.8 2.2 60
2019-10-23 22:00:00 12.8 8 Oeste 16 Sudoeste 0 954.9 2.1 77
2019-10-23 21:00:00 12.4 5 Oeste 13 Sur 0 954.2 1.3 78
2019-10-23 20:00:00 12.3 6 Sur 10 Sur 0 953.6 1 85
2019-10-23 19:00:00 13.3 2 Sudeste 8 Este 0 952.8 0.1 76
2019-10-23 18:00:00 13.9 4 Sudeste 6 Nordeste 0 952.9 0.1 70
2019-10-23 17:00:00 14.5 2 Nordeste 9 Nordeste 0 952.6 0.1 62
2019-10-23 16:00:00 14.6 6 Nordeste 15 Norte 0 952.7 -0.4 69
2019-10-23 15:00:00 14.8 5 Norte 12 Nordeste 0 952.8 -0.2 71
2019-10-23 14:00:00 14.4 2 Noroeste 13 Nordeste 0 952.5 -0.5 74
2019-10-23 13:00:00 13.1 6 Nordeste 12 Norte 0.2 953.1 0.2 82
2019-10-23 12:00:00 13.1 9 Sudoeste 17 Sudoeste 0 953 1.2 75
2019-10-23 11:00:00 11.2 4 Este 9 Este 0 953 2.5 87
2019-10-23 10:00:00 10.8 3 Este -- -- 0 952.9 2.8 87
2019-10-23 09:00:00 9.4 3 Norte -- -- 0 951.8 1.5 87
2019-10-23 08:00:00 9.5 9 Sudeste 19 Sur 0 950.5 0 87
2019-10-23 07:00:00 9 9 Sur 15 Sur 0 950.1 -1.1 94
2019-10-23 06:00:00 9.3 6 Sudeste 11 Sur 0.4 950.3 -1.8 97
2019-10-23 05:00:00 9.2 3 Sur 16 Sudoeste 2 950.5 -2.3 97
2019-10-23 04:00:00 9.2 5 Sudoeste 13 Oeste 1.2 951.2 -1.5 96
2019-10-23 03:00:00 9.1 5 Oeste 15 Noroeste 0.2 952.1 -1.9 96
2019-10-23 02:00:00 9.3 9 Noroeste 15 Noroeste 0 952.8 -2.5 95
2019-10-23 01:00:00 9.3 7 Sudoeste 22 Norte 0.6 952.7 -0.8 95
2019-10-23 00:00:00 9.5 6 Noroeste 15 Norte 0 954 0.5 95
2019-10-22 23:00:00 9.7 3 Nordeste 14 Nordeste 0 955.3 0.4 94
2019-10-22 22:00:00 9.8 5 Noroeste 19 Sudoeste 0.2 953.5 -1.5 91
2019-10-22 21:00:00 9.7 5 Nordeste 20 Norte 0 953.5 -1.6 92
2019-10-22 20:00:00 9.6 5 Sudoeste 18 Sudoeste 0.2 954.9 -1.2 92
2019-10-22 19:00:00 9.8 6 Sudoeste 17 Sudoeste 0 955 -1.9 90
2019-10-22 18:00:00 9.9 7 Sudoeste 15 Oeste 1 955.1 -1.7 91
2019-10-22 17:00:00 9.5 12 Oeste 25 Oeste 1.8 956.1 -1.3 92
2019-10-22 16:00:00 8.6 8 Oeste 30 Noroeste 2.4 956.9 -2.1 94
2019-10-22 15:00:00 8.6 14 Noroeste 30 Norte 2 956.8 -3 94
2019-10-22 14:00:00 9.2 15 Noroeste 24 Noroeste 7.2 957.4 -3.2 95
2019-10-22 13:00:00 9.8 11 Noroeste 26 Oeste 5.4 959 -1.7 93
2019-10-22 12:00:00 9.8 13 Oeste 28 Noroeste 3 959.8 -1.2 94
2019-10-22 11:00:00 9.7 5 Oeste 21 Oeste 2.4 960.6 -1 93
2019-10-22 10:00:00 9.4 7 Oeste 12 Oeste 1.6 960.7 -1.5 94
2019-10-22 09:00:00 9.3 2 Oeste 6 Oeste 1.8 961 -1.1 90
2019-10-22 08:00:00 9.6 2 Noroeste 12 Oeste 0.6 961.6 -1.4 87
2019-10-22 07:00:00 10.4 8 Oeste 13 Oeste 0 962.2 -1.1 78
2019-10-22 06:00:00 10.3 3 Norte 11 Oeste 0 962.1 -1.7 78
2019-10-22 05:00:00 9.8 6 Oeste 11 Oeste 0 963 -1.5 75
2019-10-22 04:00:00 9.7 4 Oeste 8 Oeste 0 963.3 -1.4 75
2019-10-22 03:00:00 9.7 3 Sudoeste 8 Sudoeste 0 963.8 -0.7 74
2019-10-22 02:00:00 9.8 5 Sur 9 Oeste 0 964.5 0.1 73
2019-10-22 01:00:00 9.3 6 Oeste 10 Oeste 0 964.7 0.4 73
2019-10-22 00:00:00 9.8 6 Sudoeste 9 Oeste 0 964.5 0.2 71
2019-10-21 23:00:00 10 7 Oeste 14 Oeste 0 964.4 0.4 67
2019-10-21 22:00:00 10.4 3 Oeste 9 Oeste 0 964.3 0.9 65
2019-10-21 21:00:00 11.8 6 Oeste 8 Oeste 0 964.3 1 62
2019-10-21 20:00:00 13.4 2 Sudoeste 6 Norte 0 964 0.9 59
2019-10-21 19:00:00 14.1 5 Nordeste 12 Nordeste 0 963.4 0.2 55
2019-10-21 18:00:00 15.3 7 Norte 18 Norte 0 963.3 -0.3 51
2019-10-21 17:00:00 15.6 8 Nordeste 19 Noroeste 0 963.1 -1 47
2019-10-21 16:00:00 15.7 10 Norte 18 Norte 0 963.2 -1.4 49
2019-10-21 15:00:00 16.1 8 Norte 18 Norte 0 963.6 -1.1 45
2019-10-21 14:00:00 14.9 8 Norte 13 Norte 0 964.1 -0.8 48
2019-10-21 13:00:00 15.1 4 Este 10 Este 0 964.6 0.4 48
2019-10-21 12:00:00 13.5 3 Nordeste 9 Sudoeste 0 964.7 1.4 57
2019-10-21 11:00:00 12.1 6 Sudoeste 13 Sudoeste 0 964.9 2.2 65
2019-10-21 10:00:00 10 10 Sudoeste 14 Sudoeste 0 964.2 1.5 74
2019-10-21 09:00:00 8.6 5 Oeste 16 Sudoeste 0 963.3 0.9 81
2019-10-21 08:00:00 8 9 Sudoeste 14 Sudoeste 0 962.7 0.6 81
2019-10-21 07:00:00 8.3 6 Sudoeste 13 Sudoeste 0 962.7 0.7 81
2019-10-21 06:00:00 7.6 8 Sudoeste 14 Sudoeste 0 962.4 0.4 84
2019-10-21 05:00:00 7.3 11 Sudoeste 15 Sudoeste 0 962.1 0.3 87
2019-10-21 04:00:00 7.7 6 Sudoeste 12 Sudoeste 0 962 0.6 87
2019-10-21 03:00:00 8.6 3 Oeste 7 Oeste 0 962 1.2 86
2019-10-21 02:00:00 9.8 4 Noroeste 8 Oeste 0 961.8 1.6 85
2019-10-21 01:00:00 9.5 3 Sudeste 13 Nordeste 0 961.4 2.2 85
2019-10-21 00:00:00 11.2 8 Norte 18 Oeste 0 960.8 2.4 77
2019-10-20 23:00:00 12 6 Oeste 10 Oeste 0 960.2 2.6 75
2019-10-20 22:00:00 12 2 Nordeste 6 Sudoeste 0 959.2 3.3 82
2019-10-20 21:00:00 12.5 4 Noroeste 18 Noroeste 0 958.4 3.3 80
2019-10-20 20:00:00 13.4 17 Noroeste 31 Noroeste 1 957.6 2.9 65
2019-10-20 19:00:00 15.8 4 Este 14 Este 0 955.9 1.4 58
2019-10-20 18:00:00 18 6 Este 13 Nordeste 0 955.1 1 54
2019-10-20 17:00:00 18 5 Este 18 Este 0 954.7 0.6 46
2019-10-20 16:00:00 19.5 9 Este 15 Este 0 954.5 0.8 43
2019-10-20 15:00:00 18.5 3 Noroeste 17 Oeste 0 954.1 -0.1 31
2019-10-20 14:00:00 18.9 11 Sudoeste 21 Sudoeste 0 954.1 0.6 31
2019-10-20 13:00:00 18.3 14 Sudoeste 25 Sudoeste 0 953.7 1.5 33
2019-10-20 12:00:00 18.4 13 Sudoeste 26 Oeste 0 954.2 1.7 37
2019-10-20 11:00:00 19.3 14 Oeste -- -- 0 953.5 2.4 35
2019-10-20 10:00:00 18.5 8 Sudoeste 34 Oeste 0 952.2 1.2 40
2019-10-20 09:00:00 18.4 12 Sudoeste 29 Sudoeste 0 952.5 2.1 46
2019-10-20 08:00:00 18.4 7 Sudoeste 18 Sur 0 951.1 0.9 52
2019-10-20 07:00:00 18.8 7 Sur 20 Sur 0 951 0.1 52
2019-10-20 06:00:00 19.4 6 Sur 27 Sudeste 0 950.4 -0.9 49
2019-10-20 05:00:00 19.3 12 Sur 25 Sur 0 950.2 -1.7 49
2019-10-20 04:00:00 19.5 10 Sur 23 Sudeste 0 950.9 -1.4 48
2019-10-20 03:00:00 19.5 14 Sudeste 25 Sudeste 0 951.3 -1.3 47
2019-10-20 02:00:00 19.1 12 Sudeste 26 Sur 0 951.9 -0.5 50
2019-10-20 01:00:00 18.8 12 Sudeste 28 Sudeste 0 952.3 0 52
2019-10-20 00:00:00 19.3 15 Sudeste 27 Sudeste 0 952.6 0 50
2019-10-19 23:00:00 19.1 12 Sur 21 Sudeste 0 952.4 -0.5 48
2019-10-19 22:00:00 16.1 3 Oeste 8 Sur 0 952.3 -0.7 49
2019-10-19 21:00:00 18.4 4 Oeste 14 Sudoeste 0 952.6 -0.4 42
2019-10-19 20:00:00 21.1 10 Sudoeste 25 Sudoeste 0 952.9 0 35
2019-10-19 19:00:00 22.4 15 Sudoeste 29 Sur 0 953 -0.2 31
2019-10-19 18:00:00 24.9 17 Sudoeste 32 Sudoeste 0 953 -0.4 27
2019-10-19 17:00:00 24.8 13 Sudoeste 26 Sur 0 952.9 -1.1 28
2019-10-19 16:00:00 25.8 18 Sudoeste 35 Sur 0 953.2 -1.7 24
2019-10-19 15:00:00 26.8 16 Sudoeste 32 Sudoeste 0 953.4 -2.5 22
2019-10-19 14:00:00 25.6 14 Sudoeste 28 Sudoeste 0 954 -2.6 24
2019-10-19 13:00:00 24.6 9 Este 21 Sudoeste 0 954.9 -2 30
2019-10-19 12:00:00 23.4 9 Sur 20 Sudeste 0 955.9 -0.7 33
2019-10-19 11:00:00 21.2 7 Sudeste 14 Sur 0 956.6 -0.1 42
2019-10-19 10:00:00 17.7 10 Oeste 14 Oeste 0 956.9 0.3 54
2019-10-19 09:00:00 15.3 4 Sudeste 15 Sudoeste 0 956.6 -0.2 61
2019-10-19 08:00:00 14 9 Sudoeste 18 Sur 0 956.7 -0.1 65
2019-10-19 07:00:00 15.1 11 Sur 19 Sudoeste 0 956.6 -0.5 60
2019-10-19 06:00:00 15.2 14 Sudoeste 21 Sudoeste 0 956.8 -1.1 62
2019-10-19 05:00:00 15.5 10 Sur 22 Sur 0 956.8 -1.6 60
2019-10-19 04:00:00 14.6 8 Sur 13 Oeste 0 957.1 -1.7 67
2019-10-19 03:00:00 14.8 5 Oeste 19 Sudoeste 0 957.9 -1.2 65
2019-10-19 02:00:00 15.8 8 Sudoeste 19 Sudoeste 0 958.4 -1 62
2019-10-19 01:00:00 16.5 10 Sudoeste 17 Sudoeste 0 958.8 -0.6 62
2019-10-19 00:00:00 15.5 7 Sudoeste 12 Sudoeste 0 959.1 -0.5 69
2019-10-18 23:00:00 16.2 4 Oeste 5 Oeste 0 959.4 -0.4 64
2019-10-18 22:00:00 17.3 5 Oeste 10 Oeste 0 959.4 -0.1 62
2019-10-18 21:00:00 17.2 5 Oeste 8 Oeste 0 959.6 -0.3 60
2019-10-18 20:00:00 19.1 2 Noroeste 6 Nordeste 0 959.8 0 54
2019-10-18 19:00:00 20.9 5 Nordeste 20 Norte 0 959.5 -0.3 51
2019-10-18 18:00:00 22.3 14 Norte 23 Norte 0 959.9 -0.3 46
2019-10-18 17:00:00 23.3 9 Norte 19 Norte 0 959.8 -1.2 42
2019-10-18 16:00:00 24.5 11 Norte 18 Noroeste 0 959.8 -2.1 38
2019-10-18 15:00:00 25 6 Norte 13 Nordeste 0 960.2 -2.1 37
2019-10-18 14:00:00 26.1 3 Nordeste 13 Este 0 961 -1.5 33
2019-10-18 13:00:00 23.7 3 Sudeste 11 Este 0 961.9 -0.7 39
2019-10-18 12:00:00 23.1 2 Este 9 Este 0 962.3 0.1 42
2019-10-18 11:00:00 20.8 7 Sudoeste 14 Sudoeste 0 962.5 0.8 46
2019-10-18 10:00:00 17 8 Sudoeste 14 Sudoeste 0 962.6 0.7 58
2019-10-18 09:00:00 14.1 7 Sudoeste 12 Sudoeste 0 962.2 0.1 74
2019-10-18 08:00:00 13.5 6 Sur 12 Sudoeste 0 961.7 -0.4 76
2019-10-18 07:00:00 14.2 3 Sudoeste 10 Sudoeste 0 961.9 -0.5 76
2019-10-18 06:00:00 13.6 4 Sudoeste 8 Noroeste 0 962.1 -0.7 65
2019-10-18 05:00:00 13.9 6 Sudoeste 9 Sudoeste 0 962.1 -0.9 64
2019-10-18 04:00:00 14 5 Sur 13 Oeste 0 962.4 -0.9 63
2019-10-18 03:00:00 14 3 Sudeste 13 Sudoeste 0 962.8 -0.8 62
2019-10-18 02:00:00 14.2 6 Sudoeste 11 Sudoeste 0 963 -0.7 61
2019-10-18 01:00:00 14.2 3 Sudeste 10 Sur 0 963.3 0.1 60
2019-10-18 00:00:00 16 6 Sur 14 Sudoeste 0 963.6 0.8 56
2019-10-17 23:00:00 15.2 4 Sudoeste 16 Sur 0 963.7 1.2 54
2019-10-17 22:00:00 16.1 6 Sur 12 Sudoeste 0 963.2 1.1 50
2019-10-17 21:00:00 16.7 8 Oeste 12 Sur 0 962.8 0.8 45
2019-10-17 20:00:00 17.7 3 Oeste 6 Este 0 962.5 0.6 41
2019-10-17 19:00:00 20.8 5 Este 9 Este 0 962.1 -0.1 35
2019-10-17 18:00:00 21.6 5 Nordeste 17 Norte 0 962 -0.7 31
2019-10-17 17:00:00 21.8 7 Norte 13 Noroeste 0 961.9 -1.4 29
2019-10-17 16:00:00 22 5 Nordeste 12 Norte 0 962.2 -1.4 29
2019-10-17 15:00:00 21.5 7 Norte 14 Noroeste 0 962.7 -1.1 26
2019-10-17 14:00:00 21.7 8 Norte 19 Norte 0 963.3 -0.4 23
2019-10-17 13:00:00 22.3 9 Norte 15 Noroeste 0 963.6 0.3 20
2019-10-17 12:00:00 20.9 3 Nordeste 10 Sur 0 963.8 1 21
2019-10-17 11:00:00 18.7 9 Sur 20 Sur 0 963.7 1.5 25
2019-10-17 10:00:00 15.3 14 Sudoeste 23 Sudoeste 0 963.3 1 33
2019-10-17 09:00:00 12.7 14 Sudoeste 23 Sudoeste 0 962.8 0.7 39
2019-10-17 08:00:00 12.1 13 Sudoeste 26 Sudoeste 0 962.2 0 41
2019-10-17 07:00:00 11.6 6 Sur 22 Sudoeste 0 962.3 -0.3 46
2019-10-17 06:00:00 12.4 8 Sudoeste 15 Sudoeste 0 962.1 -1 46
2019-10-17 05:00:00 12.3 9 Sur 22 Sur 0 962.2 -1 48
2019-10-17 04:00:00 12.6 15 Sudoeste 24 Sudoeste 0 962.6 -0.8 43
2019-10-17 03:00:00 12.7 15 Sudoeste 21 Sudoeste 0 963.1 -0.5 41
2019-10-17 02:00:00 14 13 Sudoeste 22 Sudoeste 0 963.2 -0.1 37
2019-10-17 01:00:00 13.8 11 Sudoeste 22 Sudoeste 0 963.4 0.6 39
2019-10-17 00:00:00 14.3 13 Sudoeste 23 Sudoeste 0 963.6 1.1 38
2019-10-16 23:00:00 14.3 10 Sudoeste 17 Sudoeste 0 963.3 1.4 39
2019-10-16 22:00:00 13.9 4 Sudoeste 9 Oeste 0 962.8 1.3 40
2019-10-16 21:00:00 14.6 8 Oeste 10 Oeste 0 962.5 0.7 38
2019-10-16 20:00:00 17.3 0 Calma 15 Norte 0 961.9 -0.1 32
2019-10-16 19:00:00 20.8 6 Norte 19 Nordeste 0 961.5 -1.5 25
2019-10-16 18:00:00 23.1 4 Este 12 Norte 0 961.8 -1.7 20
2019-10-16 17:00:00 23.1 5 Sudeste 13 Este 0 962 -2.1 21
2019-10-16 16:00:00 22 5 Nordeste 15 Norte 0 963 -1.8 23
2019-10-16 15:00:00 21.5 4 Norte 16 Nordeste 0 963.5 -2 23
2019-10-16 14:00:00 21.6 5 Nordeste 18 Norte 0 964.1 -1.8 22
2019-10-16 13:00:00 21.2 4 Este 14 Este 0 964.8 -0.9 23
2019-10-16 12:00:00 20.5 3 Este 9 Sudeste 0 965.5 0.2 24
2019-10-16 11:00:00 18.5 4 Sur 13 Sur 0 965.9 0.9 28
2019-10-16 10:00:00 15.1 8 Sudoeste 16 Sudoeste 0 965.7 0.8 34
2019-10-16 09:00:00 12 12 Sudoeste 19 Sudoeste 0 965.3 0.4 43
2019-10-16 08:00:00 10.6 12 Sudoeste 17 Sudoeste 0 965 -0.3 47
2019-10-16 07:00:00 11.3 6 Sur 26 Sur 0 964.9 -0.7 45
2019-10-16 06:00:00 11.8 12 Sur 22 Sudoeste 0 964.9 -1.2 44
2019-10-16 05:00:00 10.9 10 Sudoeste 17 Sur 0 965.3 -1 46
2019-10-16 04:00:00 10.9 9 Sudoeste 22 Sudoeste 0 965.6 -1 46
2019-10-16 03:00:00 10.8 17 Sudoeste 26 Sudoeste 0 966.1 -0.5 48
2019-10-16 02:00:00 11.5 9 Sudoeste 19 Sudoeste 0 966.3 0 46
2019-10-16 01:00:00 12.3 11 Sudoeste 17 Sudoeste 0 966.6 0.8 44
2019-10-16 00:00:00 12 12 Sudoeste 19 Sudoeste 0 966.6 1.3 42
2019-10-15 23:00:00 12.1 9 Sudoeste 16 Sudoeste 0 966.3 1.4 39
2019-10-15 22:00:00 11.6 6 Sudoeste 10 Sudoeste 0 965.8 1.2 40
2019-10-15 21:00:00 12.3 7 Oeste 9 Oeste 0 965.3 1.4 38
2019-10-15 20:00:00 14.6 4 Sur 18 Norte 0 964.9 0.7 33
2019-10-15 19:00:00 17.6 9 Noroeste 19 Noroeste 0 964.6 0.6 26
2019-10-15 18:00:00 19.1 13 Noroeste 26 Noroeste 0 963.9 -0.5 25
2019-10-15 17:00:00 19.4 14 Noroeste 30 Norte 0 964.2 -0.8 24
2019-10-15 16:00:00 19.1 20 Noroeste 37 Noroeste 0 964 -1.4 24
2019-10-15 15:00:00 18.5 18 Noroeste 32 Noroeste 0 964.4 -1.1 26
2019-10-15 14:00:00 18 16 Noroeste 33 Oeste 0 965 -0.2 27
2019-10-15 13:00:00 16.8 15 Noroeste 36 Noroeste 0 965.4 1.1 30
2019-10-15 12:00:00 15.9 18 Noroeste 37 Oeste 0 965.5 2.1 32
2019-10-15 11:00:00 14.8 21 Oeste 42 Oeste 0 965.2 2.6 37
2019-10-15 10:00:00 12.9 26 Oeste 42 Oeste 0 964.3 1.6 43
2019-10-15 09:00:00 11.5 26 Oeste 46 Oeste 0 963.4 1.4 48
2019-10-15 08:00:00 10.6 18 Oeste 35 Oeste 0 962.6 1.2 50
2019-10-15 07:00:00 10.7 18 Oeste 37 Oeste 0 962.7 1.6 52
2019-10-15 06:00:00 11.4 22 Oeste 41 Oeste 0 962 1 47
2019-10-15 05:00:00 11.7 22 Oeste 54 Oeste 0 961.4 1.1 47
2019-10-15 04:00:00 12 8 Noroeste 28 Oeste 0 961.1 0.8 56
2019-10-15 03:00:00 13.6 19 Oeste 40 Oeste 0 961 1.4 49
2019-10-15 02:00:00 14.6 14 Sudoeste 32 Oeste 0 960.3 0.8 47
2019-10-15 01:00:00 15.5 23 Oeste 39 Oeste 0 960.3 2.2 47
2019-10-15 00:00:00 15.4 20 Oeste 45 Oeste 0 959.6 2.3 49
2019-10-14 23:00:00 16.6 20 Oeste 40 Oeste 0 959.5 2.9 47
2019-10-14 22:00:00 18.4 10 Oeste 15 Oeste 0 958.1 2.2 52
2019-10-14 21:00:00 20.2 8 Sudoeste 22 Sur 0 957.3 2.1 51
2019-10-14 20:00:00 21.3 9 Sur 29 Sur 0 956.6 0.2 48
2019-10-14 19:00:00 22.6 16 Sur 35 Sur 0 955.9 -1.5 41
2019-10-14 18:00:00 23.9 17 Sudeste 40 Sudeste 0 955.2 -2 37
2019-10-14 17:00:00 23.6 16 Sudeste 28 Sudeste 0 956.4 -3.4 38
2019-10-14 16:00:00 22.3 12 Sudeste 53 Sur 0 957.4 -2.7 38
2019-10-14 15:00:00 21.1 24 Sudeste 60 Sur 0.2 957.2 -2.5 41
2019-10-14 14:00:00 23.2 29 Sudoeste 53 Sudoeste 0 959.8 0.9 32
2019-10-14 13:00:00 25.2 22 Sudoeste 39 Sudoeste 0 960.1 1.5 30
2019-10-14 12:00:00 22.4 21 Sur 38 Sur 0 959.7 1.5 47
2019-10-14 11:00:00 21.8 26 Sur 55 Sur 0 958.9 1.3 50
2019-10-14 10:00:00 20.5 31 Sudeste 50 Sudeste 0 958.6 0.7 54
2019-10-14 09:00:00 20.3 24 Sur 60 Sudeste 0 958.2 -0.3 52
2019-10-14 08:00:00 19.6 29 Sur 55 Sudeste 0 957.6 -1.4 57
2019-10-14 07:00:00 20.8 27 Sur 48 Sur 0 957.9 -1.4 47
2019-10-14 06:00:00 21 21 Sudeste 42 Sur 0 958.5 -1.5 53
2019-10-14 05:00:00 21.3 23 Sur 44 Sur 0 959 -1.6 52
2019-10-14 04:00:00 21.2 26 Sur 44 Sur 0 959.3 -1.6 54
2019-10-14 03:00:00 20.7 23 Sur 40 Sur 0 960 -1.4 57
2019-10-14 02:00:00 20.5 19 Sur 40 Sur 0 960.6 -0.8 60
2019-10-14 01:00:00 20.6 19 Sur 39 Sur 0 960.9 -0.1 61
2019-10-14 00:00:00 20.9 18 Sur 44 Sudeste 0 961.4 0.4 62